Kraków John Paul II International Airport

EPKK · Lesser Poland, Poland

METAR history EPKK · Kraków John Paul II International Airport

Below you see METARs of the last few days. Select a year to browse through older METARs, from the year 2007 onwards.

March 2, 2024

Time Code Weather Temp. Visibility Ceiling Wind METAR/SPECI
11:30
V
8 °C 8 km 5,000 ft 060° 060° 3 kt METAR EPKK 021030Z 06003KT 010V070 8000 FEW038 BKN050 08/06 Q1011
11:00
V
8 °C 8 km 5,000 ft Var Var 2 kt METAR EPKK 021000Z VRB02KT 8000 -RA SCT040 BKN050 08/06 Q1011
10:30
V
8 °C 10 km+ 5,000 ft 100° 100° 4 kt METAR EPKK 020930Z 10004KT 9999 FEW040 BKN050 08/06 Q1011
10:00
V
7 °C 10 km+ 6,500 ft 080° 080° 3 kt METAR EPKK 020900Z 08003KT 9999 BKN065 07/06 Q1011
09:30
V
7 °C 9 km - 060° 060° 3 kt METAR EPKK 020830Z 06003KT 9000 FEW067 07/06 Q1010
09:00
V
7 °C 9 km - 060° 060° 4 kt METAR EPKK 020800Z 06004KT 9000 NSC 07/05 Q1010
08:30
V
6 °C 8 km - 050° 050° 4 kt METAR EPKK 020730Z 05004KT 8000 NSC 06/04 Q1010
08:00
M
5 °C 6 km - Var Var 2 kt METAR EPKK 020700Z VRB02KT 6000 NSC 05/04 Q1010
07:30
M
5 °C 7 km - Var Var 1 kt METAR EPKK 020630Z VRB01KT 7000 NSC 05/04 Q1010
07:00
M
5 °C 7 km - Var Var 1 kt METAR EPKK 020600Z VRB01KT 7000 MIFG NSC 05/04 Q1010
06:30
M
5 °C 7 km - Var Var 2 kt METAR EPKK 020530Z VRB02KT 7000 NSC 05/04 Q1010
06:00
M
4 °C 6 km - 070° 070° 4 kt METAR EPKK 020500Z 07004KT 6000 NSC 04/04 Q1010
05:30
M
3 °C 7 km - 050° 050° 5 kt METAR EPKK 020430Z 05005KT 7000 NSC 03/03 Q1009
05:00
V
4 °C 8 km - 050° 050° 6 kt METAR EPKK 020400Z 05006KT 8000 NSC 04/03 Q1009
04:30
M
5 °C 7 km - 040° 040° 4 kt METAR EPKK 020330Z 04004KT 7000 NSC 05/04 Q1010
04:00
V
5 °C 8 km - 060° 060° 4 kt METAR EPKK 020300Z 06004KT 8000 NSC 05/04 Q1010
03:30
V
5 °C 10 km+ - 050° 050° 6 kt METAR EPKK 020230Z 05006KT CAVOK 05/04 Q1010
03:00
V
5 °C 10 km+ - 060° 060° 6 kt METAR EPKK 020200Z 06006KT CAVOK 05/04 Q1010
02:30
V
5 °C 8 km - 060° 060° 5 kt METAR EPKK 020130Z 06005KT 8000 NSC 05/04 Q1010
02:00
V
5 °C 10 km+ - 040° 040° 5 kt METAR EPKK 020100Z 04005KT CAVOK 05/04 Q1010
01:30
V
5 °C 10 km+ - 050° 050° 5 kt METAR EPKK 020030Z 05005KT CAVOK 05/04 Q1010
01:00
V
6 °C 10 km+ - 040° 040° 5 kt METAR EPKK 020000Z 04005KT CAVOK 06/04 Q1010
00:30
M
6 °C 7 km - 060° 060° 7 kt METAR EPKK 012330Z 06007KT 7000 NSC 06/04 Q1010
00:00
V
6 °C 9 km - 050° 050° 6 kt METAR EPKK 012300Z 05006KT 9000 NSC 06/05 Q1010

March 1, 2024

Time Code Weather Temp. Visibility Ceiling Wind METAR/SPECI
23:30
M
6 °C 7 km - 050° 050° 5 kt METAR EPKK 012230Z 05005KT 7000 NSC 06/05 Q1010
23:00
M
7 °C 7 km - 050° 050° 6 kt METAR EPKK 012200Z 05006KT 7000 NSC 07/05 Q1010
22:30
V
7 °C 8 km - 050° 050° 5 kt METAR EPKK 012130Z 05005KT 8000 NSC 07/06 Q1010
22:00
V
8 °C 8 km 6,500 ft 040° 040° 5 kt METAR EPKK 012100Z 04005KT 8000 BKN065 08/06 Q1010
21:30
V
8 °C 8 km 6,800 ft 050° 050° 6 kt METAR EPKK 012030Z 05006KT 8000 BKN068 08/06 Q1011
21:00
V
8 °C 8 km 6,800 ft 060° 060° 8 kt METAR EPKK 012000Z 06008KT 8000 OVC068 08/06 Q1011
20:30
M
8 °C 7 km 6,000 ft 050° 050° 8 kt METAR EPKK 011930Z 05008KT 7000 BKN060 08/06 Q1010
20:00
V
9 °C 8 km 6,000 ft 050° 050° 8 kt METAR EPKK 011900Z 05008KT 8000 -RA OVC060 09/06 Q1010
19:30
V
9 °C 9 km 6,500 ft 050° 050° 8 kt METAR EPKK 011830Z 05008KT 9000 BKN065 09/06 Q1010
19:00
V
9 °C 9 km - 060° 060° 9 kt METAR EPKK 011800Z 06009KT 9000 NSC 09/07 Q1010
18:30
V
9 °C 8 km - 050° 050° 8 kt METAR EPKK 011730Z 05008KT 8000 -RA NSC 09/07 Q1010
18:00
V
9 °C 8 km - 050° 050° 10 kt METAR EPKK 011700Z 05010KT 8000 -RA NSC 09/07 Q1010
17:30
V
10 °C 8 km - 050° 050° 9 kt METAR EPKK 011630Z 05009KT 8000 NSC 10/07 Q1010
17:00
V
10 °C 8 km - 040° 040° 7 kt METAR EPKK 011600Z 04007KT 8000 -RA NSC 10/08 Q1010
16:30
V
10 °C 8 km - 050° 050° 7 kt METAR EPKK 011530Z 05007KT 8000 -RA FEW040 10/08 Q1010
16:00
V
10 °C 8 km - 040° 040° 9 kt METAR EPKK 011500Z 04009KT 8000 -RA FEW060 10/08 Q1010
15:30
V
11 °C 8 km - 060° 060° 9 kt METAR EPKK 011430Z 06009KT 8000 -RA FEW040 11/08 Q1010
15:00
V
11 °C 10 km+ - 070° 070° 10 kt METAR EPKK 011400Z 07010KT 9999 -RA FEW045 11/07 Q1010
14:30
V
12 °C 10 km+ - 060° 060° 10 kt METAR EPKK 011330Z 06010KT CAVOK 12/07 Q1010
14:00
V
12 °C 10 km+ - 060° 060° 8 kt METAR EPKK 011300Z 06008KT CAVOK 12/07 Q1010
13:30
V
12 °C 10 km+ - 070° 070° 6 kt METAR EPKK 011230Z 07006KT 040V100 CAVOK 12/07 Q1010
13:00
V
11 °C 10 km+ - 050° 050° 6 kt METAR EPKK 011200Z 05006KT 010V080 CAVOK 11/07 Q1010
12:30
V
10 °C 10 km+ - 050° 050° 8 kt METAR EPKK 011130Z 05008KT CAVOK 10/07 Q1010
12:00
V
9 °C 10 km+ - 060° 060° 8 kt METAR EPKK 011100Z 06008KT CAVOK 09/06 Q1011
11:30
V
9 °C 8 km - 050° 050° 7 kt METAR EPKK 011030Z 05007KT 8000 NSC 09/06 Q1011
11:00
M
9 °C 7 km - 070° 070° 6 kt METAR EPKK 011000Z 07006KT 040V100 7000 FEW007 09/06 Q1011
10:30
M
8 °C 6 km - 060° 060° 7 kt METAR EPKK 010930Z 06007KT 6000 NSC 08/07 Q1011
10:00
I
8 °C 4.5 km 600 ft 070° 070° 7 kt METAR EPKK 010900Z 07007KT 4500 BR BKN006 08/06 Q1011
09:30
I
7 °C 3.4 km 500 ft 060° 060° 7 kt METAR EPKK 010830Z 06007KT 3400 BR BKN005 07/06 Q1011
09:00
L
6 °C 2.4 km 400 ft 060° 060° 8 kt METAR EPKK 010800Z 06008KT 2400 BR OVC004 06/06 Q1012
08:30
L
6 °C 1.6 km 300 ft 060° 060° 8 kt METAR EPKK 010730Z 06008KT 1600 BR OVC003 06/06 Q1012
08:00
L
6 °C 1.8 km 300 ft 060° 060° 5 kt METAR EPKK 010700Z 06005KT 1800 BR OVC003 06/06 Q1012
07:30
L
6 °C 1.5 km 200 ft 070° 070° 5 kt METAR EPKK 010630Z 07005KT 1500 BR BKN002 OVC003 06/05 Q1012
07:00
L
6 °C 1.6 km 300 ft 080° 080° 5 kt METAR EPKK 010600Z 08005KT 1600 BR OVC003 06/05 Q1012
06:30
L
5 °C 2 km 300 ft 030° 030° 5 kt METAR EPKK 010530Z 03005KT 2000 BR BKN003 05/05 Q1011
06:00
L
4 °C 400 m 400 ft 070° 070° 3 kt METAR EPKK 010500Z 07003KT 060V170 0400 R25/0800U FG BKN004 04/04 Q1012
05:30
L
3 °C 50 m 500 ft 070° 070° 4 kt METAR EPKK 010430Z 07004KT 0050 R25/0350N FG SCT000 BKN005 03/03 Q1012
05:00
L
4 °C 50 m - Var Var 2 kt METAR EPKK 010400Z VRB02KT 0050 R25/0250N FG SCT000 04/03 Q1012
04:30
L
4 °C 50 m - Var Var 2 kt METAR EPKK 010330Z VRB02KT 0050 R25/0300N FG SCT000 04/03 Q1011
04:00
L
5 °C 50 m - 040° 040° 3 kt METAR EPKK 010300Z 04003KT 0050 R25/0450U FG FEW000 05/05 Q1012
03:30
L
5 °C 200 m - 090° 090° 3 kt METAR EPKK 010230Z 09003KT 0200 R25/0700D FG NSC 05/04 Q1012
03:00
L
6 °C 1.4 km - 050° 050° 3 kt METAR EPKK 010200Z 05003KT 1400 R25/1900N BR NSC 06/06 Q1012
02:30
I
6 °C 1.8 km - 060° 060° 4 kt METAR EPKK 010130Z 06004KT 1800 BR NSC 06/05 Q1013
02:00
I
6 °C 2 km - 050° 050° 5 kt METAR EPKK 010100Z 05005KT 2000 BR FEW006 06/06 Q1013
01:30
I
6 °C 1.7 km - 050° 050° 5 kt METAR EPKK 010030Z 05005KT 1700 BR FEW005 06/05 Q1013
01:00
I
7 °C 2 km - 050° 050° 5 kt METAR EPKK 010000Z 05005KT 2000 BR SCT005 07/06 Q1014
00:30
I
6 °C 2.5 km - 050° 050° 6 kt METAR EPKK 292330Z 05006KT 2500 BR SCT005 06/06 Q1014
00:00
I
7 °C 2.8 km - 040° 040° 5 kt METAR EPKK 292300Z 04005KT 2800 BR FEW005 07/06 Q1014

February 29, 2024

Time Code Weather Temp. Visibility Ceiling Wind METAR/SPECI
23:30
I
7 °C 3.2 km - 040° 040° 7 kt METAR EPKK 292230Z 04007KT 3200 BR NSC 07/06 Q1014
23:00
I
7 °C 3.3 km - 040° 040° 6 kt METAR EPKK 292200Z 04006KT 3300 BR NSC 07/06 Q1015
22:30
I
7 °C 3.6 km - 040° 040° 6 kt METAR EPKK 292130Z 04006KT 3600 BR NSC 07/06 Q1015
22:00
I
7 °C 4.1 km - 040° 040° 6 kt METAR EPKK 292100Z 04006KT 4100 BR NSC 07/06 Q1015
21:30
I
7 °C 3.8 km - 040° 040° 5 kt METAR EPKK 292030Z 04005KT 3800 BR NSC 07/06 Q1016
21:00
I
8 °C 4.5 km - 040° 040° 6 kt METAR EPKK 292000Z 04006KT 4500 BR NSC 08/06 Q1016
20:30
I
8 °C 4.5 km - 030° 030° 7 kt METAR EPKK 291930Z 03007KT 4500 BR NSC 08/07 Q1016
20:00
I
8 °C 4.8 km - 040° 040° 7 kt METAR EPKK 291900Z 04007KT 4800 BR NSC 08/07 Q1016
19:30
M
9 °C 6 km - 040° 040° 7 kt METAR EPKK 291830Z 04007KT 6000 NSC 09/07 Q1016
19:00
M
9 °C 7 km - 050° 050° 9 kt METAR EPKK 291800Z 05009KT 7000 NSC 09/07 Q1017
18:30
M
9 °C 7 km - 050° 050° 9 kt METAR EPKK 291730Z 05009KT 7000 NSC 09/07 Q1017
18:00
V
10 °C 8 km - 050° 050° 8 kt METAR EPKK 291700Z 05008KT 8000 NSC 10/08 Q1017
17:30
V
10 °C 9 km - 060° 060° 8 kt METAR EPKK 291630Z 06008KT 9000 NSC 10/08 Q1017
17:00
V
11 °C 10 km+ - 060° 060° 10 kt METAR EPKK 291600Z 06010KT CAVOK 11/08 Q1017
16:30
V
12 °C 10 km+ - 060° 060° 9 kt METAR EPKK 291530Z 06009KT CAVOK 12/08 Q1017
16:00
V
12 °C 10 km+ - 060° 060° 8 kt METAR EPKK 291500Z 06008KT CAVOK 12/08 Q1017
15:30
V
12 °C 10 km+ - 060° 060° 8 kt METAR EPKK 291430Z 06008KT 9999 FEW020 12/08 Q1017
15:00
V
12 °C 10 km+ - 060° 060° 9 kt METAR EPKK 291400Z 06009KT 9999 FEW018 12/08 Q1018
14:30
V
12 °C 10 km+ - 070° 070° 7 kt METAR EPKK 291330Z 07007KT 030V110 9999 SCT017 12/07 Q1018
14:00
M
12 °C 10 km+ 1,700 ft 100° 100° 6 kt METAR EPKK 291300Z 10006KT 070V140 9999 BKN017 12/08 Q1018
13:30
M
11 °C 10 km+ 1,700 ft 050° 050° 7 kt METAR EPKK 291230Z 05007KT 9999 BKN017 11/08 Q1019
13:00
M
11 °C 10 km+ 1,700 ft 050° 050° 6 kt METAR EPKK 291200Z 05006KT 9999 SCT013 BKN017 11/07 Q1019
12:30
M
11 °C 10 km+ 1,800 ft 050° 050° 7 kt METAR EPKK 291130Z 05007KT 9999 SCT011 BKN018 11/08 Q1019
12:00
M
11 °C 10 km+ 1,800 ft 060° 060° 7 kt METAR EPKK 291100Z 06007KT 040V100 9999 SCT012 BKN018 11/08 Q1020
11:30
M
10 °C 10 km+ 2,100 ft 080° 080° 8 kt METAR EPKK 291030Z 08008KT 9999 SCT011 OVC021 10/08 Q1020
11:00
M
10 °C 10 km+ 2,000 ft 060° 060° 7 kt METAR EPKK 291000Z 06007KT 9999 FEW010 BKN020 10/08 Q1020
10:30
M
9 °C 10 km+ 2,000 ft 070° 070° 5 kt METAR EPKK 290930Z 07005KT 040V100 9999 FEW008 BKN020 09/07 Q1021
10:00
M
9 °C 9 km 2,000 ft 070° 070° 7 kt METAR EPKK 290900Z 07007KT 9000 SCT011 BKN020 09/07 Q1021
09:30
M
9 °C 8 km 2,000 ft 080° 080° 6 kt METAR EPKK 290830Z 08006KT 8000 SCT008 BKN020 09/07 Q1021
09:00
M
8 °C 8 km 2,000 ft 100° 100° 6 kt METAR EPKK 290800Z 10006KT 8000 SCT008 BKN020 08/07 Q1021
08:30
I
8 °C 4.5 km 600 ft 100° 100° 5 kt METAR EPKK 290730Z 10005KT 070V130 4500 BR BKN006 08/07 Q1021
08:00
L
8 °C 3.5 km 400 ft 070° 070° 5 kt METAR EPKK 290700Z 07005KT 3500 BR BKN004 08/07 Q1021
07:30
L
8 °C 3.2 km 400 ft 040° 040° 4 kt METAR EPKK 290630Z 04004KT 3200 BR FEW003 BKN004 08/07 Q1021
07:00
L
8 °C 3.6 km 400 ft 070° 070° 4 kt METAR EPKK 290600Z 07004KT 3600 BR FEW003 BKN004 08/07 Q1021